Timeline UpdatesTrip UpdatesNews PostsPvt PostsTravel TipsAdmin PostsConv PostsFollowed PostsChat RequestsBlog PostsPNR Posts

Disclaimer
Search
 
 
Thu Apr 24, 2014 09:40:50 ISTHomeTrainsΣChainsAtlasPNRForumGalleryNewsFAQTripsMembersLoginFeedback
No Recent News for this Train
Other Trains in the News **new
Latest...
Will be diverted via Alappuzha on April 27 2014 with stoppages at Harippad, Ambalappuzha, Alappuzhsa and Ernakulam Jn Stations.
Fri Apr 18, 2014 (07:36PM)
⇐ Return Journey: Train# 16649

16650/Parashuram Express

Feb 21 2014 (7:41PM)
Change Departure Station:
Change Arrival Station:
Post a Train Travel TipPost a Train Travel Tip **new
Post a Comment/Question/Picture/VideoPost a Comment/Question/Picture/Video
Pantry/Catering
✓ Pantry Car Avbl
✓ Catering Avbl
RSA - Rake Sharing
Rake/Coach Composition
1 Reserved Compartment II S; 2 AC Chair Car; 18 Second Sitting II S + 1 Ladies Coach; 2 SLR; ##; ##; FC also available, which is usually placed in the middle of the train and is meant for MST Holders. One can also avail the facility of manual upgradation.
Loco
NCJ-SRR :ED/RPM WAP 4 SRR-MAQ :ED WDM-3D/ ERS WDM 3A
News    PNR    Forum    Time-Table    Availability    Fare Chart    Map    Arr/Dep History    Trips    Gallery    ΣChains    X/O    Timeline    
Travel Time: 11h 45m    34 halts    Distance: 506 km    Avg Speed: 43 km/hr
Type: Mail/Express
Zone: SR/Southern
Departs @ 08:45 (Avg 28m late)
Platform# ???
SMTWTFS
Chengannur/CNGR 
Arrives @ 20:30 (Avg 17m late)
Platform# 2
SMTWTFS
Mangalore Central/MAQ 

34 halts. 94 intermediate Stations between Chengannur and Mangalore Central

Show ALL intermediate Stations  Show Old Time-Table

#CodeStation NameX/OArrivesAvgDepartsAvgHaltPFDay#KmSpeedElevZoneAddress
1NCJNagercoil Junction (3)  -04:20+8--1-196.75822mSRNagercoil-629002, Tamil Nadu
2ERLEranielX  04:39+1204:40+211m--1-178.46419mSRKanyakumari, Tamil Nadu
3KZTKulitturai  04:54+2304:55+241m--1-163.66629mSRMarthandam, Tamil Nadu
4PASAParassala  05:04+2605:05+261m--1-153.73445mSRParassala, Kerala
5NYYNeyyattinkara  05:24+1805:25+191m--1-142.82111mSRThiruvananthapuram, Kerala
6TVCTrivandrum Central (5)  06:15+606:25+810m51-125.66712mSRPh: 0471-2321622, Kerala
7KZKKazhakkuttam (3)X06:37+1206:38+121m--1-112.37920mSRKulathoor ► Kazhakootam Road Kazhakootam PO Thiruvananthapuram, Kerala
8VAKVarkala Sivagiri (3)X  06:59+1507:00+161m--1-84.77552mSREdava Kappil Road, Kerala
9PVUParavur (3)07:09+1707:10+181m--1-73.45018mSRParavoor, Kerala
10QLNKollam Junction (6)X  07:25+1707:30+185m21-61.06116mSRKollam 0474-2746194, Kerala
11STKTSasthamkotta (2)X  07:49+1807:50+191m--1-41.6510mSRKollam Dist, Kerala
12KPYKarunagappalli (2)X  07:59+2208:00+231m11-33.94112mSRKollam Dist, Kerala
13KYJKayamkulam Junction (5)X  08:20+2008:22+202m--1-20.25111mSRAlappuzha Ph;0479-2442042, Kerala
14MVLKMavelikara (3)  08:31+2208:32+231m21-12.56313mSRMavelikkara Ph: 0479-2302249, Kerala
15CNGR»Chengannur (3)»  08:44+2408:45+281m--10.0606mSRPh: 0479-2452340, Kerala
16TRVLTiruvalla (2)  08:54+3108:55+331m--19.15227mSRPh: 0469-2601314, Kerala
17CGYChanganassery (3)  09:04+3409:05+351m--116.93611mSRPh: 0481- 2420108, Kerala
18KTYMKottayam (3)  09:35+2709:38+293m--134.85815mSRTel: 0481 2563535, Kerala
19ETMEttumanur (1)  09:49+3409:50+351m1145.35228mSRKottayam, Kerala
20PVRDPiravom RoadX  10:14+3510:15+381m--166.04612mSRKottayam, Kerala
21TRTRThrippunithura (2)X10:40+4210:41+421m--185.1315mSRErnakulam, Kerala
22ERNErnakulam Town (North) (2)X  11:00+4011:05+395m1194.7449mSRTel: 0484 2395198, Kerala
23AWYAluva (3)  11:28+3511:30+342m31111.66112mSRPh: 0484-2624141, Kerala
24AFKAngamaly for Kalady (3)X  11:39+3511:40+351m--1120.88716mSRPhone: 0484-2452340, Kerala
25DINRDivine Nagar (2)  11:49+3811:50+381m21133.83316mSRThrissur, Kerala
26CKIChalakkudy (3)X  11:54+3811:55+381m21136.0439mSRPh: 0480- 2701368, Kerala
27IJKIrinjalakkuda (2)  12:04+3812:05+381m--1142.46818mSRKalletumkara, Kerala
28PUKPudukkad (2)X  12:14+4112:15+421m--1152.73711mSRPudukad, Kerala
29TCRThrissur (4)  12:37+3312:40+333m21166.2586mSRThrissur Tel: 0487 2423150, Kerala
30WKIWadakkanchery (2)  12:57+3312:58+341m21182.62740mSRWadackanchery, Kerala
31SRRShoranur Junction (7)X13:35+2713:45+3510m61199.15026mSRShoranur ph.no 0466-2222913, Kerala
32PTBPattambi (2)  13:59+3514:00+361m--1210.75821mSRPattambi, Kerala
33KTUKuttippuram (2)X  14:19+3414:20+351m--1229.14817mSRKuttippuram, Kerala
34TIRTirur (3)X  14:39+3214:40+331m--1244.2699mSRTel: 0494 2422240, Kerala
35TATanur (3)  14:47+3614:48+361m--1252.25411mSRMalappuram, Kerala
36PGIParappangadi (2)  14:57+3514:58+361m--1260.35719mSRParappanangadi, Kerala
37FKFerok (2)X  15:14+3615:15+361m--1275.52419mSRFeroke, Kerala
38CLTKozhikode Main (4)X  15:40+2715:45+295m--1285.46611mSRCalicut Tel: 0495 2701234, Kerala
39QLDKoyilandy (3)  16:07+3116:08+311m--1309.87311mSRQuilandi, Kerala
40BDJVadakara (2)  16:26+3216:27+341m21331.77711mSRCalicut / Station Ph No : 0496-2524254, Kerala
41MAHEMahe (2)  16:37+3716:38+381m--1344.65016mSRMahe, Puducherry
42TLYThalassery (2)  16:49+3816:50+401m--1353.8289mSRKannur, Kerala
43CANKannur Main (3)  17:35+2017:40+275m11374.56214mSRKannur Tel: 0497 2705555, Kerala
44KPQKannapuram (2)X  17:54+2817:55+281m--1389.0509mSRKannur District, Kerala
45PAZPayangadi (2)  18:04+2718:05+281m--1396.55812mSRKannur District, Kerala
46PAYPayyanur (3)X  18:17+3118:18+321m--1408.1570mSRKannur District, Kerala
47NLENileshwar (2)  18:39+3518:40+371m--1428.26212mSRNileswaram, Kerala
48KZEKanhangad (3)X  18:49+3918:50+401m--1437.47315mSRKanhangad, Kerala
49KGQKasaragod (3)X  19:09+3719:10+381m--1460.53418mSRTel: 04994 220800, Kerala
50MAQ•Mangalore Central (3)•  20:30+17-21506.3-14mSRMangalore 575001, Karnataka
Scroll to Top
Scroll to Bottom